createdAt,value
2023-05-07T00:00:01.314Z,15.98
2023-05-07T00:02:28.065Z,15.77
2023-05-07T00:04:54.865Z,15.65
2023-05-07T00:07:21.723Z,15.27
2023-05-07T00:09:50.008Z,15.63
2023-05-07T00:12:16.785Z,15.52
2023-05-07T00:14:44.231Z,15.68
2023-05-07T00:17:10.915Z,15.90
2023-05-07T00:19:38.656Z,14.35
2023-05-07T00:22:05.327Z,15.25
2023-05-07T00:24:34.512Z,14.57
2023-05-07T00:27:03.558Z,14.35
2023-05-07T00:29:32.629Z,15.27
2023-05-07T00:31:59.368Z,15.52
2023-05-07T00:34:26.161Z,15.13
2023-05-07T00:36:52.849Z,14.48
2023-05-07T00:39:19.582Z,15.48
2023-05-07T00:41:46.416Z,14.70
2023-05-07T00:44:13.138Z,14.57
2023-05-07T00:46:39.932Z,16.15
2023-05-07T00:49:06.867Z,14.95
2023-05-07T00:51:34.548Z,15.30
2023-05-07T00:54:03.368Z,15.63
2023-05-07T00:56:30.163Z,14.98
2023-05-07T00:58:56.914Z,15.38
2023-05-07T01:01:23.719Z,15.32
2023-05-07T01:03:51.631Z,15.30
2023-05-07T01:06:20.075Z,15.90
2023-05-07T01:08:49.583Z,15.15
2023-05-07T01:11:25.820Z,15.82
2023-05-07T01:13:56.864Z,15.10
2023-05-07T01:16:26.356Z,15.05
2023-05-07T01:18:54.414Z,15.13
2023-05-07T01:21:28.863Z,15.48
2023-05-07T01:23:56.484Z,14.60
2023-05-07T01:26:24.004Z,14.70
2023-05-07T01:28:50.725Z,14.55
2023-05-07T01:31:19.013Z,14.02
2023-05-07T01:33:46.895Z,14.05
2023-05-07T01:36:15.732Z,14.57
2023-05-07T01:38:43.386Z,14.32
2023-05-07T01:41:10.138Z,14.18
2023-05-07T01:43:37.142Z,14.27
2023-05-07T01:46:05.377Z,13.68
2023-05-07T01:48:32.720Z,14.25
2023-05-07T01:51:01.147Z,13.85
2023-05-07T01:53:28.907Z,13.10
2023-05-07T01:55:55.598Z,14.07
2023-05-07T01:58:22.280Z,13.27
2023-05-07T02:00:49.004Z,14.68
2023-05-07T02:03:15.822Z,13.82
2023-05-07T02:05:42.627Z,14.43
2023-05-07T02:08:09.331Z,14.45
2023-05-07T02:10:36.059Z,14.98
2023-05-07T02:13:02.915Z,14.48
2023-05-07T02:15:32.860Z,14.32
2023-05-07T02:18:04.817Z,15.07
2023-05-07T02:20:32.629Z,14.25
2023-05-07T02:22:59.631Z,15.27
2023-05-07T02:25:26.302Z,14.70
2023-05-07T02:27:53.019Z,14.65
2023-05-07T02:30:19.781Z,14.90
2023-05-07T02:32:46.530Z,13.63
2023-05-07T02:35:13.239Z,14.07
2023-05-07T02:37:40.021Z,15.63
2023-05-07T02:40:07.387Z,13.88
2023-05-07T02:42:34.044Z,14.20
2023-05-07T02:45:00.923Z,14.70
2023-05-07T02:47:27.624Z,14.23
2023-05-07T02:49:55.299Z,13.73
2023-05-07T02:52:23.008Z,13.75
2023-05-07T02:54:49.737Z,13.40
2023-05-07T02:57:17.708Z,13.52
2023-05-07T02:59:44.973Z,12.93
2023-05-07T03:02:13.046Z,13.40
2023-05-07T03:04:43.723Z,12.50
2023-05-07T03:07:10.347Z,13.25
2023-05-07T03:09:37.019Z,13.45
2023-05-07T03:12:03.818Z,13.10
2023-05-07T03:14:30.533Z,13.05
2023-05-07T03:16:57.188Z,13.32
2023-05-07T03:19:24.168Z,13.32
2023-05-07T03:21:50.925Z,13.15
2023-05-07T03:24:21.032Z,13.48
2023-05-07T03:27:00.126Z,13.18
2023-05-07T03:29:28.473Z,13.48
2023-05-07T03:31:55.279Z,13.50
2023-05-07T03:34:21.984Z,13.88
2023-05-07T03:36:52.048Z,12.95
2023-05-07T03:39:18.863Z,13.50
2023-05-07T03:41:45.472Z,12.88
2023-05-07T03:44:12.195Z,13.15
2023-05-07T03:46:39.155Z,14.23
2023-05-07T03:49:05.920Z,13.57
2023-05-07T03:51:33.792Z,14.38
2023-05-07T03:54:00.524Z,13.40
2023-05-07T03:56:28.931Z,13.13
2023-05-07T03:58:56.713Z,13.38
2023-05-07T04:01:24.069Z,12.25
2023-05-07T04:03:50.922Z,12.00
2023-05-07T04:06:18.208Z,12.40
2023-05-07T04:08:44.934Z,12.77
2023-05-07T04:11:11.644Z,13.27
2023-05-07T04:13:38.353Z,12.13
2023-05-07T04:16:07.526Z,12.35
2023-05-07T04:18:34.232Z,11.63
2023-05-07T04:21:00.908Z,12.00
2023-05-07T04:23:29.164Z,11.45
2023-05-07T04:25:56.102Z,11.05
2023-05-07T04:28:22.823Z,10.68
2023-05-07T04:30:49.576Z,11.13
2023-05-07T04:33:16.307Z,11.10
2023-05-07T04:35:43.017Z,10.70
2023-05-07T04:38:09.728Z,10.93
2023-05-07T04:40:39.483Z,10.38
2023-05-07T04:43:06.143Z,10.38
2023-05-07T04:45:34.084Z,9.88
2023-05-07T04:48:01.981Z,9.93
2023-05-07T04:50:29.964Z,9.73
2023-05-07T04:52:56.680Z,9.65
2023-05-07T04:55:23.404Z,9.27
2023-05-07T04:57:50.158Z,10.10
2023-05-07T05:00:17.080Z,9.40
2023-05-07T05:02:45.355Z,8.35
2023-05-07T05:05:12.502Z,9.32
2023-05-07T05:07:39.166Z,8.40
2023-05-07T05:10:06.960Z,8.32
2023-05-07T05:12:34.000Z,8.60
2023-05-07T05:15:00.691Z,9.15
2023-05-07T05:17:27.525Z,8.95
2023-05-07T05:19:55.558Z,8.75
2023-05-07T05:22:24.837Z,8.75
2023-05-07T05:24:51.589Z,9.75
2023-05-07T05:27:18.257Z,9.48
2023-05-07T05:29:44.955Z,9.65
2023-05-07T05:32:11.738Z,10.50
2023-05-07T05:34:38.489Z,9.95
2023-05-07T05:37:05.298Z,9.57
2023-05-07T05:39:31.937Z,10.10
2023-05-07T05:41:58.691Z,9.63
2023-05-07T05:44:25.560Z,9.05
2023-05-07T05:46:52.468Z,9.98
2023-05-07T05:49:20.378Z,9.77
2023-05-07T05:51:47.161Z,9.75
2023-05-07T05:54:15.083Z,10.15
2023-05-07T05:56:42.435Z,9.75
2023-05-07T05:59:19.097Z,9.35
2023-05-07T06:01:47.046Z,9.45
2023-05-07T06:04:13.749Z,9.25
2023-05-07T06:06:40.437Z,9.70
2023-05-07T06:09:07.133Z,9.20
2023-05-07T06:11:33.890Z,9.90
2023-05-07T06:14:00.604Z,9.57
2023-05-07T06:16:27.348Z,9.68
2023-05-07T06:18:54.160Z,9.68
2023-05-07T06:21:20.885Z,9.50
2023-05-07T06:23:47.604Z,8.60
2023-05-07T06:26:14.312Z,8.73
2023-05-07T06:28:41.079Z,8.90
2023-05-07T06:31:14.968Z,8.77
2023-05-07T06:33:41.799Z,9.18
2023-05-07T06:36:09.740Z,8.25
2023-05-07T06:38:37.153Z,8.60
2023-05-07T06:41:06.287Z,8.50
2023-05-07T06:43:33.144Z,8.18
2023-05-07T06:46:01.479Z,8.07
2023-05-07T06:48:29.268Z,8.00
2023-05-07T06:51:17.221Z,7.70
2023-05-07T06:53:45.022Z,7.90
2023-05-07T06:56:12.176Z,7.65
2023-05-07T06:58:40.079Z,7.35
2023-05-07T07:01:06.897Z,6.53
2023-05-07T07:03:36.211Z,6.55
2023-05-07T07:06:02.966Z,8.82
2023-05-07T07:08:30.722Z,7.75
2023-05-07T07:10:57.446Z,8.10
2023-05-07T07:13:24.305Z,7.90
2023-05-07T07:15:51.155Z,7.57
2023-05-07T07:18:17.835Z,7.32
2023-05-07T07:20:44.557Z,6.85
2023-05-07T07:23:11.384Z,6.60
2023-05-07T07:25:38.193Z,6.78
2023-05-07T07:28:04.899Z,6.20
2023-05-07T07:30:31.771Z,5.85
2023-05-07T07:32:58.522Z,6.10
2023-05-07T07:35:26.232Z,5.55
2023-05-07T07:37:53.021Z,5.75
2023-05-07T07:40:20.910Z,5.43
2023-05-07T07:42:49.194Z,5.88
2023-05-07T07:45:17.049Z,5.38
2023-05-07T07:47:43.861Z,5.55
2023-05-07T07:50:11.002Z,5.70
2023-05-07T07:52:38.303Z,5.72
2023-05-07T07:55:05.611Z,5.00
2023-05-07T07:57:32.288Z,5.40
2023-05-07T07:59:59.000Z,4.50
2023-05-07T08:02:25.725Z,4.35
2023-05-07T08:04:53.046Z,4.20
2023-05-07T08:07:19.756Z,4.57
2023-05-07T08:09:47.626Z,5.20
2023-05-07T08:12:14.353Z,4.03
2023-05-07T08:14:41.468Z,4.53
2023-05-07T08:17:09.219Z,4.07
2023-05-07T08:19:37.328Z,3.90
2023-05-07T08:22:05.347Z,5.00
2023-05-07T08:24:32.003Z,4.30
2023-05-07T08:26:58.663Z,4.00
2023-05-07T08:29:25.339Z,4.55
2023-05-07T08:31:52.021Z,4.20
2023-05-07T08:34:18.683Z,3.60
2023-05-07T08:36:45.341Z,3.67
2023-05-07T08:39:12.133Z,4.30
2023-05-07T08:41:39.028Z,3.83
2023-05-07T08:44:12.371Z,3.95
2023-05-07T08:46:40.174Z,4.40
2023-05-07T08:49:06.994Z,3.80
2023-05-07T08:51:33.765Z,3.85
2023-05-07T08:54:02.157Z,3.47
2023-05-07T08:56:32.420Z,3.53
2023-05-07T08:59:01.531Z,3.55
2023-05-07T09:01:29.668Z,3.35
2023-05-07T09:03:57.048Z,3.67
2023-05-07T09:06:24.149Z,3.80
2023-05-07T09:08:52.361Z,4.20
2023-05-07T09:11:24.499Z,3.65
2023-05-07T09:13:58.169Z,3.67
2023-05-07T09:16:25.662Z,3.97
2023-05-07T09:18:54.512Z,3.70
2023-05-07T09:21:24.144Z,3.63
2023-05-07T09:23:54.876Z,3.78
2023-05-07T09:26:25.549Z,3.60
2023-05-07T09:28:55.238Z,4.03
2023-05-07T09:31:23.129Z,4.38
2023-05-07T09:33:49.883Z,3.80
2023-05-07T09:36:17.147Z,4.10
2023-05-07T09:38:43.934Z,3.80
2023-05-07T09:41:13.218Z,3.80
2023-05-07T09:43:41.153Z,3.53
2023-05-07T09:46:15.815Z,3.38
2023-05-07T09:48:44.375Z,3.72
2023-05-07T09:51:43.993Z,3.22
2023-05-07T09:54:12.317Z,3.50
2023-05-07T09:56:40.303Z,2.85
2023-05-07T09:59:09.110Z,2.70
2023-05-07T10:01:37.852Z,3.95
2023-05-07T10:04:05.111Z,2.55
2023-05-07T10:06:32.345Z,2.38
2023-05-07T10:09:00.289Z,2.58
2023-05-07T10:11:27.506Z,2.53
2023-05-07T10:13:54.412Z,2.65
2023-05-07T10:16:22.371Z,2.38
2023-05-07T10:18:50.645Z,2.20
2023-05-07T10:21:20.166Z,2.55
2023-05-07T10:23:50.363Z,2.42
2023-05-07T10:26:19.114Z,2.92
2023-05-07T10:28:51.516Z,3.85
2023-05-07T10:31:43.202Z,2.50
2023-05-07T10:34:17.836Z,2.78
2023-05-07T10:36:45.372Z,3.15
2023-05-07T10:39:12.195Z,2.33
2023-05-07T10:41:39.892Z,2.40
2023-05-07T10:44:07.080Z,2.28
2023-05-07T10:46:33.890Z,2.67
2023-05-07T10:49:10.793Z,2.92
2023-05-07T10:51:40.495Z,2.50
2023-05-07T10:54:13.221Z,2.30
2023-05-07T10:56:44.414Z,2.47
2023-05-07T10:59:23.568Z,1.90
2023-05-07T11:02:10.774Z,2.40
2023-05-07T11:04:38.215Z,4.45
2023-05-07T11:07:28.470Z,2.45
2023-05-07T11:09:59.319Z,1.92
2023-05-07T11:12:41.536Z,2.42
2023-05-07T11:15:12.929Z,2.28
2023-05-07T11:18:00.698Z,2.40
2023-05-07T11:20:51.986Z,2.50
2023-05-07T11:23:34.151Z,2.47
2023-05-07T11:26:03.366Z,2.25
2023-05-07T11:28:31.331Z,2.15
2023-05-07T11:30:58.901Z,2.00
2023-05-07T11:33:26.514Z,2.40
2023-05-07T11:35:55.079Z,2.50
2023-05-07T11:38:22.433Z,2.63
2023-05-07T11:40:51.349Z,3.33
2023-05-07T11:43:18.601Z,2.50
2023-05-07T11:45:51.767Z,3.13
2023-05-07T11:48:21.896Z,2.70
2023-05-07T11:51:07.830Z,2.10
2023-05-07T11:53:43.398Z,2.22
2023-05-07T11:56:16.280Z,2.30
2023-05-07T11:58:44.602Z,1.90
2023-05-07T12:01:14.291Z,1.98
2023-05-07T12:03:42.913Z,1.50
2023-05-07T12:06:10.246Z,2.40
2023-05-07T12:08:43.650Z,2.58
2023-05-07T12:11:17.794Z,3.75
2023-05-07T12:13:45.296Z,3.25
2023-05-07T12:16:12.398Z,3.00
2023-05-07T12:18:40.052Z,2.60
2023-05-07T12:21:19.463Z,2.42
2023-05-07T12:23:49.102Z,2.10
2023-05-07T12:26:16.378Z,2.03
2023-05-07T12:28:44.330Z,2.97
2023-05-07T12:31:14.232Z,2.45
2023-05-07T12:33:43.847Z,1.65
2023-05-07T12:36:16.785Z,3.05
2023-05-07T12:38:46.084Z,2.50
2023-05-07T12:41:14.292Z,2.20
2023-05-07T12:43:45.073Z,2.20
2023-05-07T12:46:22.245Z,2.03
2023-05-07T12:48:49.517Z,1.83
2023-05-07T12:54:09.018Z,2.50
2023-05-07T12:56:41.530Z,2.42
2023-05-07T12:59:09.167Z,1.75
2023-05-07T13:04:17.895Z,2.17
2023-05-07T13:06:45.651Z,2.00
2023-05-07T13:09:14.763Z,1.50
2023-05-07T13:11:43.040Z,1.70
2023-05-07T13:14:17.764Z,1.55
2023-05-07T13:16:45.269Z,1.47
2023-05-07T13:19:14.610Z,2.33
2023-05-07T13:21:41.597Z,2.72
2023-05-07T13:24:08.732Z,2.10
2023-05-07T13:26:35.694Z,2.13
2023-05-07T13:29:02.536Z,2.17
2023-05-07T13:31:29.473Z,1.70
2023-05-07T13:33:56.353Z,1.60
2023-05-07T13:36:23.448Z,1.63
2023-05-07T13:38:51.819Z,2.00
2023-05-07T13:41:19.927Z,1.48
2023-05-07T13:43:47.294Z,1.90
2023-05-07T13:46:16.864Z,2.28
2023-05-07T13:48:44.038Z,2.70
2023-05-07T13:51:10.864Z,2.00
2023-05-07T13:53:37.689Z,1.60
2023-05-07T13:56:07.202Z,2.10
2023-05-07T13:58:34.026Z,3.45
2023-05-07T14:01:01.163Z,2.40
2023-05-07T14:03:28.857Z,2.05
2023-05-07T14:05:56.354Z,2.60
2023-05-07T14:08:23.358Z,2.22
2023-05-07T14:10:50.086Z,2.05
2023-05-07T14:13:16.998Z,2.28
2023-05-07T14:15:44.000Z,2.00
2023-05-07T14:18:12.470Z,1.80
2023-05-07T14:20:39.296Z,1.70
2023-05-07T14:23:08.610Z,1.98
2023-05-07T14:25:35.375Z,1.65
2023-05-07T14:28:02.249Z,2.22
2023-05-07T14:30:31.944Z,2.03
2023-05-07T14:32:58.802Z,2.72
2023-05-07T14:35:25.486Z,2.60
2023-05-07T14:37:52.176Z,1.90
2023-05-07T14:40:18.870Z,1.98
2023-05-07T14:42:45.694Z,1.70
2023-05-07T14:45:12.556Z,1.80
2023-05-07T14:47:39.474Z,2.00
2023-05-07T14:50:06.561Z,1.85
2023-05-07T14:52:33.267Z,2.67
2023-05-07T14:55:01.393Z,2.10
2023-05-07T14:57:32.674Z,1.92
2023-05-07T15:00:03.204Z,1.77
2023-05-07T15:02:32.537Z,1.60
2023-05-07T15:05:02.753Z,1.63
2023-05-07T15:07:34.002Z,2.15
2023-05-07T15:10:02.798Z,1.83
2023-05-07T15:12:31.742Z,2.17
2023-05-07T15:14:58.827Z,1.65
2023-05-07T15:17:25.962Z,2.13
2023-05-07T15:19:54.370Z,1.52
2023-05-07T15:22:21.524Z,1.90
2023-05-07T15:24:48.354Z,1.50
2023-05-07T15:27:15.274Z,1.60
2023-05-07T15:29:41.953Z,2.33
2023-05-07T15:32:08.811Z,1.45
2023-05-07T15:34:35.632Z,1.80
2023-05-07T15:37:02.581Z,3.40
2023-05-07T15:39:31.562Z,2.40
2023-05-07T15:41:59.338Z,1.60
2023-05-07T15:44:27.293Z,1.90
2023-05-07T15:46:55.593Z,2.15
2023-05-07T15:49:24.356Z,5.60
2023-05-07T15:52:00.951Z,2.50
2023-05-07T15:54:29.123Z,1.80
2023-05-07T15:56:57.892Z,1.40
2023-05-07T15:59:25.918Z,1.50
2023-05-07T16:01:53.813Z,1.70
2023-05-07T16:04:20.556Z,2.25
2023-05-07T16:06:47.405Z,2.53
2023-05-07T16:09:14.965Z,1.80
2023-05-07T16:11:41.982Z,1.80
2023-05-07T16:14:08.706Z,1.50
2023-05-07T16:16:36.309Z,3.28
2023-05-07T16:19:03.205Z,3.25
2023-05-07T16:21:29.869Z,1.80
2023-05-07T16:23:56.763Z,1.90
2023-05-07T16:26:23.512Z,1.90
2023-05-07T16:28:51.462Z,1.40
2023-05-07T16:31:18.568Z,2.20
2023-05-07T16:33:46.522Z,1.75
2023-05-07T16:36:16.374Z,2.30
2023-05-07T16:38:45.505Z,6.20
2023-05-07T16:41:13.716Z,3.75
2023-05-07T16:43:40.466Z,2.80
2023-05-07T16:46:07.257Z,3.72
2023-05-07T16:48:33.915Z,8.32
2023-05-07T16:51:01.719Z,6.85
2023-05-07T16:53:29.529Z,3.70
2023-05-07T16:55:57.328Z,2.42
2023-05-07T16:58:24.250Z,2.58
2023-05-07T17:00:51.392Z,2.70
2023-05-07T17:03:18.834Z,2.58
2023-05-07T17:05:46.082Z,2.55
2023-05-07T17:08:12.970Z,2.50
2023-05-07T17:10:39.854Z,2.03
2023-05-07T17:13:06.765Z,2.20
2023-05-07T17:15:39.878Z,2.30
2023-05-07T17:18:13.283Z,3.20
2023-05-07T17:20:41.275Z,2.60
2023-05-07T17:23:08.009Z,2.70
2023-05-07T17:25:36.453Z,2.45
2023-05-07T17:28:03.234Z,2.80
2023-05-07T17:30:32.596Z,2.10
2023-05-07T17:33:16.691Z,2.58
2023-05-07T17:35:49.332Z,2.28
2023-05-07T17:38:17.056Z,2.17
2023-05-07T17:40:44.840Z,2.35
2023-05-07T17:43:11.551Z,1.77
2023-05-07T17:45:39.865Z,2.10
2023-05-07T17:48:06.651Z,2.30
2023-05-07T17:50:35.967Z,1.95
2023-05-07T17:53:02.794Z,1.98
2023-05-07T17:55:30.554Z,2.22
2023-05-07T17:57:57.227Z,1.92
2023-05-07T18:00:24.269Z,2.10
2023-05-07T18:02:54.674Z,2.70
2023-05-07T18:05:21.573Z,3.55
2023-05-07T18:07:48.229Z,2.15
2023-05-07T18:10:14.907Z,2.22
2023-05-07T18:12:41.685Z,2.28
2023-05-07T18:15:09.133Z,2.53
2023-05-07T18:17:36.928Z,3.63
2023-05-07T18:20:05.574Z,3.75
2023-05-07T18:22:32.364Z,4.40
2023-05-07T18:24:59.064Z,2.40
2023-05-07T18:27:25.781Z,3.00
2023-05-07T18:29:54.744Z,4.10
2023-05-07T18:32:21.518Z,4.15
2023-05-07T18:34:48.669Z,3.10
2023-05-07T18:37:15.427Z,3.75
2023-05-07T18:39:42.281Z,3.35
2023-05-07T18:42:09.455Z,6.60
2023-05-07T18:44:36.172Z,4.15
2023-05-07T18:47:03.195Z,2.78
2023-05-07T18:49:30.020Z,2.90
2023-05-07T18:51:56.830Z,4.90
2023-05-07T18:54:26.638Z,4.20
2023-05-07T18:56:53.364Z,4.25
2023-05-07T18:59:23.617Z,5.60
2023-05-07T19:01:53.807Z,4.00
2023-05-07T19:04:21.979Z,2.83
2023-05-07T19:06:48.816Z,2.67
2023-05-07T19:09:15.519Z,2.40
2023-05-07T19:11:42.488Z,2.88
2023-05-07T19:14:09.184Z,2.50
2023-05-07T19:16:35.979Z,3.30
2023-05-07T19:19:02.734Z,3.50
2023-05-07T19:21:29.695Z,2.33
2023-05-07T19:23:56.380Z,2.63
2023-05-07T19:26:23.839Z,2.50
2023-05-07T19:29:06.569Z,2.70
2023-05-07T19:31:37.519Z,2.60
2023-05-07T19:34:04.229Z,2.22
2023-05-07T19:36:30.922Z,2.40
2023-05-07T19:38:57.614Z,3.10
2023-05-07T19:41:25.887Z,3.03
2023-05-07T19:43:53.115Z,3.28
2023-05-07T19:46:22.148Z,3.60
2023-05-07T19:48:49.057Z,3.28
2023-05-07T19:51:15.782Z,3.53
2023-05-07T19:53:42.645Z,3.83
2023-05-07T19:56:10.586Z,4.57
2023-05-07T19:58:38.121Z,3.85
2023-05-07T20:01:05.688Z,3.42
2023-05-07T20:03:33.692Z,3.28
2023-05-07T20:06:00.687Z,2.90
2023-05-07T20:08:28.286Z,3.00
2023-05-07T20:10:58.575Z,2.70
2023-05-07T20:13:27.073Z,2.95
2023-05-07T20:16:01.226Z,2.70
2023-05-07T20:18:29.776Z,2.83
2023-05-07T20:20:56.673Z,7.90
2023-05-07T20:23:24.999Z,4.97
2023-05-07T20:25:53.382Z,2.80
2023-05-07T20:28:20.100Z,3.17
2023-05-07T20:30:46.927Z,3.20
2023-05-07T20:33:14.123Z,2.85
2023-05-07T20:35:41.470Z,2.88
2023-05-07T20:38:11.100Z,2.95
2023-05-07T20:40:38.045Z,2.97
2023-05-07T20:43:06.097Z,3.25
2023-05-07T20:45:33.246Z,3.15
2023-05-07T20:48:00.303Z,2.88
2023-05-07T20:50:27.304Z,3.20
2023-05-07T20:52:57.243Z,3.40
2023-05-07T20:55:24.123Z,3.13
2023-05-07T20:57:50.819Z,3.72
2023-05-07T21:00:19.356Z,3.30
2023-05-07T21:02:47.777Z,3.17
2023-05-07T21:05:14.651Z,3.45
2023-05-07T21:07:41.376Z,3.58
2023-05-07T21:10:08.602Z,3.42
2023-05-07T21:12:35.597Z,3.60
2023-05-07T21:15:02.326Z,4.05
2023-05-07T21:17:29.098Z,4.20
2023-05-07T21:19:56.116Z,3.58
2023-05-07T21:22:22.908Z,4.05
2023-05-07T21:24:49.721Z,3.55
2023-05-07T21:27:16.534Z,3.72
2023-05-07T21:29:43.379Z,3.60
2023-05-07T21:32:10.332Z,3.80
2023-05-07T21:34:38.400Z,3.80
2023-05-07T21:37:06.080Z,4.15
2023-05-07T21:39:34.852Z,4.25
2023-05-07T21:42:03.305Z,4.32
2023-05-07T21:44:31.821Z,4.50
2023-05-07T21:46:58.553Z,4.38
2023-05-07T21:49:25.227Z,4.93
2023-05-07T21:51:52.006Z,4.85
2023-05-07T21:54:18.682Z,4.68
2023-05-07T21:56:47.221Z,4.60
2023-05-07T21:59:15.447Z,4.97
2023-05-07T22:01:43.448Z,4.68
2023-05-07T22:04:10.222Z,4.57
2023-05-07T22:06:38.370Z,5.65
2023-05-07T22:09:05.023Z,4.70
2023-05-07T22:11:31.778Z,4.57
2023-05-07T22:13:58.506Z,4.93
2023-05-07T22:16:25.243Z,4.78
2023-05-07T22:18:51.954Z,4.78
2023-05-07T22:21:20.422Z,4.90
2023-05-07T22:23:50.458Z,4.90
2023-05-07T22:26:19.441Z,4.63
2023-05-07T22:28:46.178Z,4.93
2023-05-07T22:31:12.946Z,4.28
2023-05-07T22:33:39.752Z,4.57
2023-05-07T22:36:07.099Z,4.70
2023-05-07T22:38:33.813Z,4.90
2023-05-07T22:41:00.589Z,4.50
2023-05-07T22:43:27.257Z,4.53
2023-05-07T22:46:01.644Z,4.70
2023-05-07T22:48:29.064Z,4.80
2023-05-07T22:50:56.072Z,4.35
2023-05-07T22:53:23.424Z,4.45
2023-05-07T22:55:50.447Z,4.13
2023-05-07T22:58:18.797Z,4.30
2023-05-07T23:00:45.587Z,4.50
2023-05-07T23:03:13.707Z,4.95
2023-05-07T23:05:42.949Z,4.80
2023-05-07T23:08:09.938Z,4.45
2023-05-07T23:10:36.648Z,5.05
2023-05-07T23:13:03.479Z,4.47
2023-05-07T23:15:30.244Z,4.72
2023-05-07T23:17:57.048Z,4.88
2023-05-07T23:20:24.105Z,4.38
2023-05-07T23:22:50.854Z,4.82
2023-05-07T23:25:17.768Z,4.70
2023-05-07T23:27:44.453Z,4.82
2023-05-07T23:30:11.984Z,4.70
2023-05-07T23:32:38.922Z,5.07
2023-05-07T23:35:06.202Z,5.20
2023-05-07T23:37:34.883Z,5.18
2023-05-07T23:40:01.643Z,5.45
2023-05-07T23:42:28.364Z,4.80
2023-05-07T23:44:56.297Z,5.10
2023-05-07T23:47:23.572Z,5.43
2023-05-07T23:49:51.666Z,5.35
2023-05-07T23:52:18.513Z,6.07
2023-05-07T23:54:45.300Z,5.93
2023-05-07T23:57:12.005Z,5.15
2023-05-07T23:59:38.629Z,5.53
